Morton S Bouchard Jr — WSE9678 — position and weather

sailwx.info

Track history (hours):
 
Tides and Currents Weather Stations Pressure Air Temp Water Temp Dewpoint Dewpoint Depression Visibility Wind Speed Wind Dir Waves Ship Positions

Morton S Bouchard Jr

More information available from US FCC via Universal Licensing System and Coast Guard Vessel Documentation Center.

Last reported at 2014-Jul-25 04:32 UTC. Time now 2014-Jul-25 11:25 UTC.
Position N 29°21' W 094°45'.

Length 33 m; draft 6 m.

Type: Tug. MMSI: 367006550.

Date/timePositionNaut miles runAvg speedWind from/ knotsBaromVisibWave heightAir tempDewpointWater temp
2014-Jul-25 04:32N 29°21' W 094°45'0 0.0
2014-Jul-24 05:25N 29°21' W 094°45'0 0.1
2014-Jul-24 04:28N 29°21' W 094°45'0 0.0
2014-Jul-24 02:31N 29°21' W 094°45'  
2014-Jul-15 20:17N 27°36' W 083°00'6 8.6
2014-Jul-15 19:33N 27°36' W 082°53'7 7.5
2014-Jul-15 18:34N 27°36' W 082°45'7 6.9
2014-Jul-15 17:32N 27°39' W 082°37'7 7.4
2014-Jul-15 16:32N 27°44' W 082°32'7 7.3
2014-Jul-15 15:34N 27°50' W 082°27'5 5.2
2014-Jul-15 14:34N 27°55' W 082°27'0 0.1
2014-Jul-15 13:33N 27°55' W 082°27'0 0.0
2014-Jul-15 12:33N 27°55' W 082°27'2 0.7
2014-Jul-15 10:21N 27°57' W 082°27'0 0.0
2014-Jul-15 09:33N 27°57' W 082°27'0 0.0
2014-Jul-15 08:33N 27°57' W 082°27'0 0.0
2014-Jul-15 07:33N 27°57' W 082°27'0 0.0
2014-Jul-15 06:33N 27°57' W 082°27'0 0.0
2014-Jul-15 05:33N 27°57' W 082°27'0 0.0
2014-Jul-15 04:33N 27°57' W 082°27'  
Track history (hours):
 
Tides and Currents Weather Stations Pressure Air Temp Water Temp Dewpoint Dewpoint Depression Visibility Wind Speed Wind Dir Waves Ship Positions

Morton S Bouchard Jr

More information available from US FCC via Universal Licensing System and Coast Guard Vessel Documentation Center.

Last reported at 2014-Jul-25 04:32 UTC. Time now 2014-Jul-25 11:25 UTC.
Position N 29°21' W 094°45'.

Length 33 m; draft 6 m.

Type: Tug. MMSI: 367006550.

Date/timePositionNaut miles runAvg speedWind from/ knotsBaromVisibWave heightAir tempDewpointWater temp
2014-Jul-25 04:32N 29°21' W 094°45'0 0.0
2014-Jul-24 05:25N 29°21' W 094°45'0 0.1
2014-Jul-24 04:28N 29°21' W 094°45'0 0.0
2014-Jul-24 02:31N 29°21' W 094°45'  
2014-Jul-15 20:17N 27°36' W 083°00'6 8.6
2014-Jul-15 19:33N 27°36' W 082°53'7 7.5
2014-Jul-15 18:34N 27°36' W 082°45'7 6.9
2014-Jul-15 17:32N 27°39' W 082°37'7 7.4
2014-Jul-15 16:32N 27°44' W 082°32'7 7.3
2014-Jul-15 15:34N 27°50' W 082°27'5 5.2
2014-Jul-15 14:34N 27°55' W 082°27'0 0.1
2014-Jul-15 13:33N 27°55' W 082°27'0 0.0
2014-Jul-15 12:33N 27°55' W 082°27'2 0.7
2014-Jul-15 10:21N 27°57' W 082°27'0 0.0
2014-Jul-15 09:33N 27°57' W 082°27'0 0.0
2014-Jul-15 08:33N 27°57' W 082°27'0 0.0
2014-Jul-15 07:33N 27°57' W 082°27'0 0.0
2014-Jul-15 06:33N 27°57' W 082°27'0 0.0
2014-Jul-15 05:33N 27°57' W 082°27'0 0.0
2014-Jul-15 04:33N 27°57' W 082°27'  

Dump ship's entire track history